sensor_id;sensor_type;location;lat;lon;timestamp;temperature;humidity
57843;DHT22;43673;51.058;3.734;2023-05-07T00:00:00;18.30;99.90
57843;DHT22;43673;51.058;3.734;2023-05-07T00:02:26;18.30;99.90
57843;DHT22;43673;51.058;3.734;2023-05-07T00:04:52;18.40;99.90
57843;DHT22;43673;51.058;3.734;2023-05-07T00:07:18;18.40;99.90
57843;DHT22;43673;51.058;3.734;2023-05-07T00:09:43;18.40;99.90
57843;DHT22;43673;51.058;3.734;2023-05-07T00:12:09;18.40;99.90
57843;DHT22;43673;51.058;3.734;2023-05-07T00:14:35;18.40;99.90
57843;DHT22;43673;51.058;3.734;2023-05-07T00:17:01;18.30;99.90
57843;DHT22;43673;51.058;3.734;2023-05-07T00:19:26;18.30;99.90
57843;DHT22;43673;51.058;3.734;2023-05-07T00:21:52;18.40;99.90
57843;DHT22;43673;51.058;3.734;2023-05-07T00:24:22;18.40;99.90
57843;DHT22;43673;51.058;3.734;2023-05-07T00:26:48;18.40;99.90
57843;DHT22;43673;51.058;3.734;2023-05-07T00:29:13;18.40;99.90
57843;DHT22;43673;51.058;3.734;2023-05-07T00:31:39;18.40;99.90
57843;DHT22;43673;51.058;3.734;2023-05-07T00:34:05;18.40;99.90
57843;DHT22;43673;51.058;3.734;2023-05-07T00:36:31;18.30;99.90
57843;DHT22;43673;51.058;3.734;2023-05-07T00:38:59;18.30;99.90
57843;DHT22;43673;51.058;3.734;2023-05-07T00:41:25;18.30;99.90
57843;DHT22;43673;51.058;3.734;2023-05-07T00:43:51;18.30;99.90
57843;DHT22;43673;51.058;3.734;2023-05-07T00:46:21;18.30;99.90
57843;DHT22;43673;51.058;3.734;2023-05-07T00:48:48;18.40;99.90
57843;DHT22;43673;51.058;3.734;2023-05-07T00:51:15;18.40;99.90
57843;DHT22;43673;51.058;3.734;2023-05-07T00:53:41;18.50;99.90
57843;DHT22;43673;51.058;3.734;2023-05-07T00:56:06;18.50;99.90
57843;DHT22;43673;51.058;3.734;2023-05-07T00:58:33;18.50;99.90
57843;DHT22;43673;51.058;3.734;2023-05-07T01:00:59;18.40;99.90
57843;DHT22;43673;51.058;3.734;2023-05-07T01:03:25;18.40;99.90
57843;DHT22;43673;51.058;3.734;2023-05-07T01:05:52;18.30;99.90
57843;DHT22;43673;51.058;3.734;2023-05-07T01:08:19;18.20;99.90
57843;DHT22;43673;51.058;3.734;2023-05-07T01:10:46;18.20;99.90
57843;DHT22;43673;51.058;3.734;2023-05-07T01:13:12;18.20;99.90
57843;DHT22;43673;51.058;3.734;2023-05-07T01:15:39;18.20;99.90
57843;DHT22;43673;51.058;3.734;2023-05-07T01:18:06;18.10;99.90
57843;DHT22;43673;51.058;3.734;2023-05-07T01:20:32;18.10;99.90
57843;DHT22;43673;51.058;3.734;2023-05-07T01:23:00;18.10;99.90
57843;DHT22;43673;51.058;3.734;2023-05-07T01:25:26;18.20;99.90
57843;DHT22;43673;51.058;3.734;2023-05-07T01:27:52;18.20;99.90
57843;DHT22;43673;51.058;3.734;2023-05-07T01:30:18;18.20;99.90
57843;DHT22;43673;51.058;3.734;2023-05-07T01:33:04;18.20;99.90
57843;DHT22;43673;51.058;3.734;2023-05-07T01:35:36;18.10;99.90
57843;DHT22;43673;51.058;3.734;2023-05-07T01:38:03;18.10;99.90
57843;DHT22;43673;51.058;3.734;2023-05-07T01:40:31;18.10;99.90
57843;DHT22;43673;51.058;3.734;2023-05-07T01:42:57;18.10;99.90
57843;DHT22;43673;51.058;3.734;2023-05-07T01:45:23;18.10;99.90
57843;DHT22;43673;51.058;3.734;2023-05-07T01:47:49;18.10;99.90
57843;DHT22;43673;51.058;3.734;2023-05-07T01:50:17;18.10;99.90
57843;DHT22;43673;51.058;3.734;2023-05-07T01:52:43;18.00;99.90
57843;DHT22;43673;51.058;3.734;2023-05-07T01:55:09;18.00;99.90
57843;DHT22;43673;51.058;3.734;2023-05-07T01:57:35;18.00;99.90
57843;DHT22;43673;51.058;3.734;2023-05-07T02:00:01;17.90;99.90
57843;DHT22;43673;51.058;3.734;2023-05-07T02:02:30;17.90;99.90
57843;DHT22;43673;51.058;3.734;2023-05-07T02:04:56;17.80;99.90
57843;DHT22;43673;51.058;3.734;2023-05-07T02:07:22;17.70;99.90
57843;DHT22;43673;51.058;3.734;2023-05-07T02:09:48;17.70;99.90
57843;DHT22;43673;51.058;3.734;2023-05-07T02:12:13;17.70;99.90
57843;DHT22;43673;51.058;3.734;2023-05-07T02:14:39;17.60;99.90
57843;DHT22;43673;51.058;3.734;2023-05-07T02:17:05;17.60;99.90
57843;DHT22;43673;51.058;3.734;2023-05-07T02:19:30;17.60;99.90
57843;DHT22;43673;51.058;3.734;2023-05-07T02:21:56;17.60;99.90
57843;DHT22;43673;51.058;3.734;2023-05-07T02:24:21;17.60;99.90
57843;DHT22;43673;51.058;3.734;2023-05-07T02:26:47;17.60;99.90
57843;DHT22;43673;51.058;3.734;2023-05-07T02:29:13;17.60;99.90
57843;DHT22;43673;51.058;3.734;2023-05-07T02:31:38;17.60;99.90
57843;DHT22;43673;51.058;3.734;2023-05-07T02:34:04;17.60;99.90
57843;DHT22;43673;51.058;3.734;2023-05-07T02:36:30;17.50;99.90
57843;DHT22;43673;51.058;3.734;2023-05-07T02:38:55;17.40;99.90
57843;DHT22;43673;51.058;3.734;2023-05-07T02:41:21;17.30;99.90
57843;DHT22;43673;51.058;3.734;2023-05-07T02:43:46;17.20;99.90
57843;DHT22;43673;51.058;3.734;2023-05-07T02:46:12;17.20;99.90
57843;DHT22;43673;51.058;3.734;2023-05-07T02:48:38;17.20;99.90
57843;DHT22;43673;51.058;3.734;2023-05-07T02:51:04;17.30;99.90
57843;DHT22;43673;51.058;3.734;2023-05-07T02:53:31;17.30;99.90
57843;DHT22;43673;51.058;3.734;2023-05-07T02:55:58;17.20;99.90
57843;DHT22;43673;51.058;3.734;2023-05-07T02:58:25;17.20;99.90
57843;DHT22;43673;51.058;3.734;2023-05-07T03:00:51;17.20;99.90
57843;DHT22;43673;51.058;3.734;2023-05-07T03:03:17;17.30;99.90
57843;DHT22;43673;51.058;3.734;2023-05-07T03:05:42;17.30;99.90
57843;DHT22;43673;51.058;3.734;2023-05-07T03:08:09;17.30;99.90
57843;DHT22;43673;51.058;3.734;2023-05-07T03:10:36;17.30;99.90
57843;DHT22;43673;51.058;3.734;2023-05-07T03:13:02;17.40;99.90
57843;DHT22;43673;51.058;3.734;2023-05-07T03:15:27;17.30;99.90
57843;DHT22;43673;51.058;3.734;2023-05-07T03:17:53;17.50;99.90
57843;DHT22;43673;51.058;3.734;2023-05-07T03:20:19;17.40;99.90
57843;DHT22;43673;51.058;3.734;2023-05-07T03:22:44;17.30;99.90
57843;DHT22;43673;51.058;3.734;2023-05-07T03:25:10;17.30;99.90
57843;DHT22;43673;51.058;3.734;2023-05-07T03:27:36;17.30;99.90
57843;DHT22;43673;51.058;3.734;2023-05-07T03:30:02;17.20;99.90
57843;DHT22;43673;51.058;3.734;2023-05-07T03:32:28;17.20;99.90
57843;DHT22;43673;51.058;3.734;2023-05-07T03:34:54;17.30;99.90
57843;DHT22;43673;51.058;3.734;2023-05-07T03:37:19;17.30;99.90
57843;DHT22;43673;51.058;3.734;2023-05-07T03:39:45;17.40;99.90
57843;DHT22;43673;51.058;3.734;2023-05-07T03:42:11;17.40;99.90
57843;DHT22;43673;51.058;3.734;2023-05-07T03:44:36;17.30;99.90
57843;DHT22;43673;51.058;3.734;2023-05-07T03:47:03;17.30;99.90
57843;DHT22;43673;51.058;3.734;2023-05-07T03:49:29;17.40;99.90
57843;DHT22;43673;51.058;3.734;2023-05-07T03:51:54;17.40;99.90
57843;DHT22;43673;51.058;3.734;2023-05-07T03:54:21;17.40;99.90
57843;DHT22;43673;51.058;3.734;2023-05-07T03:56:46;17.50;99.90
57843;DHT22;43673;51.058;3.734;2023-05-07T03:59:13;17.50;99.90
57843;DHT22;43673;51.058;3.734;2023-05-07T04:01:39;17.50;99.90
57843;DHT22;43673;51.058;3.734;2023-05-07T04:04:04;17.60;99.90
57843;DHT22;43673;51.058;3.734;2023-05-07T04:06:30;17.60;99.90
57843;DHT22;43673;51.058;3.734;2023-05-07T04:08:56;17.60;99.90
57843;DHT22;43673;51.058;3.734;2023-05-07T04:11:22;17.60;99.90
57843;DHT22;43673;51.058;3.734;2023-05-07T04:13:48;17.60;99.90
57843;DHT22;43673;51.058;3.734;2023-05-07T04:16:14;17.60;99.90
57843;DHT22;43673;51.058;3.734;2023-05-07T04:18:39;17.60;99.90
57843;DHT22;43673;51.058;3.734;2023-05-07T04:21:05;17.50;99.90
57843;DHT22;43673;51.058;3.734;2023-05-07T04:23:31;17.60;99.90
57843;DHT22;43673;51.058;3.734;2023-05-07T04:25:57;17.50;99.90
57843;DHT22;43673;51.058;3.734;2023-05-07T04:28:23;17.60;99.90
57843;DHT22;43673;51.058;3.734;2023-05-07T04:30:49;17.60;99.90
57843;DHT22;43673;51.058;3.734;2023-05-07T04:33:15;17.60;99.90
57843;DHT22;43673;51.058;3.734;2023-05-07T04:35:43;17.50;99.90
57843;DHT22;43673;51.058;3.734;2023-05-07T04:38:09;17.50;99.90
57843;DHT22;43673;51.058;3.734;2023-05-07T04:40:36;17.50;99.90
57843;DHT22;43673;51.058;3.734;2023-05-07T04:43:01;17.40;99.90
57843;DHT22;43673;51.058;3.734;2023-05-07T04:45:27;17.50;99.90
57843;DHT22;43673;51.058;3.734;2023-05-07T04:47:53;17.50;99.90
57843;DHT22;43673;51.058;3.734;2023-05-07T04:50:18;17.50;99.90
57843;DHT22;43673;51.058;3.734;2023-05-07T04:52:45;17.50;99.90
57843;DHT22;43673;51.058;3.734;2023-05-07T04:55:11;17.40;99.90
57843;DHT22;43673;51.058;3.734;2023-05-07T04:57:36;17.40;99.90
57843;DHT22;43673;51.058;3.734;2023-05-07T05:00:05;17.50;99.90
57843;DHT22;43673;51.058;3.734;2023-05-07T05:02:31;17.50;99.90
57843;DHT22;43673;51.058;3.734;2023-05-07T05:04:57;17.50;99.90
57843;DHT22;43673;51.058;3.734;2023-05-07T05:07:22;17.60;99.90
57843;DHT22;43673;51.058;3.734;2023-05-07T05:09:48;17.60;99.90
57843;DHT22;43673;51.058;3.734;2023-05-07T05:12:13;17.60;99.90
57843;DHT22;43673;51.058;3.734;2023-05-07T05:14:39;17.60;99.90
57843;DHT22;43673;51.058;3.734;2023-05-07T05:17:05;17.60;99.90
57843;DHT22;43673;51.058;3.734;2023-05-07T05:19:30;17.60;99.90
57843;DHT22;43673;51.058;3.734;2023-05-07T05:21:56;17.60;99.90
57843;DHT22;43673;51.058;3.734;2023-05-07T05:24:21;17.60;99.90
57843;DHT22;43673;51.058;3.734;2023-05-07T05:26:47;17.60;99.90
57843;DHT22;43673;51.058;3.734;2023-05-07T05:29:13;17.70;99.90
57843;DHT22;43673;51.058;3.734;2023-05-07T05:31:38;17.70;99.90
57843;DHT22;43673;51.058;3.734;2023-05-07T05:34:04;17.80;99.90
57843;DHT22;43673;51.058;3.734;2023-05-07T05:36:30;17.80;99.90
57843;DHT22;43673;51.058;3.734;2023-05-07T05:38:56;17.90;99.90
57843;DHT22;43673;51.058;3.734;2023-05-07T05:41:21;17.80;99.90
57843;DHT22;43673;51.058;3.734;2023-05-07T05:43:48;17.80;99.90
57843;DHT22;43673;51.058;3.734;2023-05-07T05:46:14;17.70;99.90
57843;DHT22;43673;51.058;3.734;2023-05-07T05:48:40;17.70;99.90
57843;DHT22;43673;51.058;3.734;2023-05-07T05:51:06;17.80;99.90
57843;DHT22;43673;51.058;3.734;2023-05-07T05:53:31;17.90;99.90
57843;DHT22;43673;51.058;3.734;2023-05-07T05:55:57;17.90;99.90
57843;DHT22;43673;51.058;3.734;2023-05-07T05:58:23;17.80;99.90
57843;DHT22;43673;51.058;3.734;2023-05-07T06:00:50;17.90;99.90
57843;DHT22;43673;51.058;3.734;2023-05-07T06:03:17;17.90;99.90
57843;DHT22;43673;51.058;3.734;2023-05-07T06:05:43;17.90;99.90
57843;DHT22;43673;51.058;3.734;2023-05-07T06:08:09;17.80;99.90
57843;DHT22;43673;51.058;3.734;2023-05-07T06:10:36;17.80;99.90
57843;DHT22;43673;51.058;3.734;2023-05-07T06:13:02;17.70;99.90
57843;DHT22;43673;51.058;3.734;2023-05-07T06:15:28;17.70;99.90
57843;DHT22;43673;51.058;3.734;2023-05-07T06:17:53;17.70;99.90
57843;DHT22;43673;51.058;3.734;2023-05-07T06:20:21;17.70;99.90
57843;DHT22;43673;51.058;3.734;2023-05-07T06:22:46;17.70;99.90
57843;DHT22;43673;51.058;3.734;2023-05-07T06:25:12;17.70;99.90
57843;DHT22;43673;51.058;3.734;2023-05-07T06:27:38;17.60;99.90
57843;DHT22;43673;51.058;3.734;2023-05-07T06:30:05;17.60;99.90
57843;DHT22;43673;51.058;3.734;2023-05-07T06:32:31;17.60;99.90
57843;DHT22;43673;51.058;3.734;2023-05-07T06:34:57;17.60;99.90
57843;DHT22;43673;51.058;3.734;2023-05-07T06:37:22;17.60;99.90
57843;DHT22;43673;51.058;3.734;2023-05-07T06:39:48;17.50;99.90
57843;DHT22;43673;51.058;3.734;2023-05-07T06:42:14;17.50;99.90
57843;DHT22;43673;51.058;3.734;2023-05-07T06:44:39;17.50;99.90
57843;DHT22;43673;51.058;3.734;2023-05-07T06:47:05;17.50;99.90
57843;DHT22;43673;51.058;3.734;2023-05-07T06:49:31;17.60;99.90
57843;DHT22;43673;51.058;3.734;2023-05-07T06:51:57;17.60;99.90
57843;DHT22;43673;51.058;3.734;2023-05-07T06:54:23;17.70;99.90
57843;DHT22;43673;51.058;3.734;2023-05-07T06:56:48;17.70;99.90
57843;DHT22;43673;51.058;3.734;2023-05-07T06:59:14;17.70;99.90
57843;DHT22;43673;51.058;3.734;2023-05-07T07:01:40;17.70;99.90
57843;DHT22;43673;51.058;3.734;2023-05-07T07:04:06;17.70;99.90
57843;DHT22;43673;51.058;3.734;2023-05-07T07:06:31;17.70;99.90
57843;DHT22;43673;51.058;3.734;2023-05-07T07:08:58;17.70;99.90
57843;DHT22;43673;51.058;3.734;2023-05-07T07:11:24;17.80;99.90
57843;DHT22;43673;51.058;3.734;2023-05-07T07:13:49;17.90;99.90
57843;DHT22;43673;51.058;3.734;2023-05-07T07:16:16;18.00;99.90
57843;DHT22;43673;51.058;3.734;2023-05-07T07:18:42;18.00;99.90
57843;DHT22;43673;51.058;3.734;2023-05-07T07:21:08;18.10;99.90
57843;DHT22;43673;51.058;3.734;2023-05-07T07:23:33;18.00;99.90
57843;DHT22;43673;51.058;3.734;2023-05-07T07:25:59;18.10;99.90
57843;DHT22;43673;51.058;3.734;2023-05-07T07:28:25;18.00;99.90
57843;DHT22;43673;51.058;3.734;2023-05-07T07:30:50;18.10;99.90
57843;DHT22;43673;51.058;3.734;2023-05-07T07:33:16;18.10;99.90
57843;DHT22;43673;51.058;3.734;2023-05-07T07:35:42;18.20;99.90
57843;DHT22;43673;51.058;3.734;2023-05-07T07:38:08;18.30;99.90
57843;DHT22;43673;51.058;3.734;2023-05-07T07:40:36;18.20;99.90
57843;DHT22;43673;51.058;3.734;2023-05-07T07:43:02;18.20;99.90
57843;DHT22;43673;51.058;3.734;2023-05-07T07:45:28;18.30;99.90
57843;DHT22;43673;51.058;3.734;2023-05-07T07:47:54;18.30;99.90
57843;DHT22;43673;51.058;3.734;2023-05-07T07:50:20;18.30;99.90
57843;DHT22;43673;51.058;3.734;2023-05-07T07:52:46;18.20;99.90
57843;DHT22;43673;51.058;3.734;2023-05-07T07:55:11;18.20;99.90
57843;DHT22;43673;51.058;3.734;2023-05-07T07:57:37;18.10;99.90
57843;DHT22;43673;51.058;3.734;2023-05-07T08:00:06;18.10;99.90
57843;DHT22;43673;51.058;3.734;2023-05-07T08:02:32;18.10;99.90
57843;DHT22;43673;51.058;3.734;2023-05-07T08:04:58;18.10;99.90
57843;DHT22;43673;51.058;3.734;2023-05-07T08:07:23;18.10;99.90
57843;DHT22;43673;51.058;3.734;2023-05-07T08:09:49;18.10;99.90
57843;DHT22;43673;51.058;3.734;2023-05-07T08:12:15;18.00;99.90
57843;DHT22;43673;51.058;3.734;2023-05-07T08:14:41;18.00;99.90
57843;DHT22;43673;51.058;3.734;2023-05-07T08:17:06;18.00;99.90
57843;DHT22;43673;51.058;3.734;2023-05-07T08:19:32;18.10;99.90
57843;DHT22;43673;51.058;3.734;2023-05-07T08:21:58;18.20;99.90
57843;DHT22;43673;51.058;3.734;2023-05-07T08:24:24;18.20;99.90
57843;DHT22;43673;51.058;3.734;2023-05-07T08:26:49;18.30;99.90
57843;DHT22;43673;51.058;3.734;2023-05-07T08:29:15;18.30;99.90
57843;DHT22;43673;51.058;3.734;2023-05-07T08:31:41;18.40;99.90
57843;DHT22;43673;51.058;3.734;2023-05-07T08:34:07;18.50;99.90
57843;DHT22;43673;51.058;3.734;2023-05-07T08:36:33;18.60;99.90
57843;DHT22;43673;51.058;3.734;2023-05-07T08:38:59;18.70;99.90
57843;DHT22;43673;51.058;3.734;2023-05-07T08:41:25;18.70;99.90
57843;DHT22;43673;51.058;3.734;2023-05-07T08:43:51;18.80;99.90
57843;DHT22;43673;51.058;3.734;2023-05-07T08:46:18;18.80;99.90
57843;DHT22;43673;51.058;3.734;2023-05-07T08:48:46;18.80;99.90
57843;DHT22;43673;51.058;3.734;2023-05-07T08:51:15;18.90;99.90
57843;DHT22;43673;51.058;3.734;2023-05-07T08:53:41;19.00;99.90
57843;DHT22;43673;51.058;3.734;2023-05-07T08:56:08;19.00;99.90
57843;DHT22;43673;51.058;3.734;2023-05-07T08:58:34;19.10;99.90
57843;DHT22;43673;51.058;3.734;2023-05-07T09:01:07;19.10;99.90
57843;DHT22;43673;51.058;3.734;2023-05-07T09:03:33;19.20;99.90
57843;DHT22;43673;51.058;3.734;2023-05-07T09:05:58;19.30;99.90
57843;DHT22;43673;51.058;3.734;2023-05-07T09:08:25;19.30;99.90
57843;DHT22;43673;51.058;3.734;2023-05-07T09:10:52;19.40;99.90
57843;DHT22;43673;51.058;3.734;2023-05-07T09:13:18;19.50;99.90
57843;DHT22;43673;51.058;3.734;2023-05-07T09:15:44;19.50;99.90
57843;DHT22;43673;51.058;3.734;2023-05-07T09:18:09;19.60;99.90
57843;DHT22;43673;51.058;3.734;2023-05-07T09:20:38;19.70;99.90
57843;DHT22;43673;51.058;3.734;2023-05-07T09:23:06;19.70;99.90
57843;DHT22;43673;51.058;3.734;2023-05-07T09:25:33;19.80;99.90
57843;DHT22;43673;51.058;3.734;2023-05-07T09:28:04;19.90;99.90
57843;DHT22;43673;51.058;3.734;2023-05-07T09:30:31;19.90;99.90
57843;DHT22;43673;51.058;3.734;2023-05-07T09:32:58;20.00;99.90
57843;DHT22;43673;51.058;3.734;2023-05-07T09:35:25;20.10;99.90
57843;DHT22;43673;51.058;3.734;2023-05-07T09:37:56;20.20;99.90
57843;DHT22;43673;51.058;3.734;2023-05-07T09:40:23;20.30;99.90
57843;DHT22;43673;51.058;3.734;2023-05-07T09:42:50;20.30;99.90
57843;DHT22;43673;51.058;3.734;2023-05-07T09:45:21;20.30;99.90
57843;DHT22;43673;51.058;3.734;2023-05-07T09:47:49;20.40;99.90
57843;DHT22;43673;51.058;3.734;2023-05-07T09:50:19;20.50;99.90
57843;DHT22;43673;51.058;3.734;2023-05-07T09:52:47;20.60;99.90
57843;DHT22;43673;51.058;3.734;2023-05-07T09:55:13;20.60;99.90
57843;DHT22;43673;51.058;3.734;2023-05-07T09:57:40;20.60;99.90
57843;DHT22;43673;51.058;3.734;2023-05-07T10:00:07;20.60;99.90
57843;DHT22;43673;51.058;3.734;2023-05-07T10:02:35;20.80;99.90
57843;DHT22;43673;51.058;3.734;2023-05-07T10:05:02;21.00;99.90
57843;DHT22;43673;51.058;3.734;2023-05-07T10:07:29;21.10;99.90
57843;DHT22;43673;51.058;3.734;2023-05-07T10:09:55;21.20;99.90
57843;DHT22;43673;51.058;3.734;2023-05-07T10:12:23;21.20;99.90
57843;DHT22;43673;51.058;3.734;2023-05-07T10:14:50;21.40;99.90
57843;DHT22;43673;51.058;3.734;2023-05-07T10:17:18;21.50;99.90
57843;DHT22;43673;51.058;3.734;2023-05-07T10:19:44;21.70;99.90
57843;DHT22;43673;51.058;3.734;2023-05-07T10:22:11;21.80;99.90
57843;DHT22;43673;51.058;3.734;2023-05-07T10:24:38;21.80;99.90
57843;DHT22;43673;51.058;3.734;2023-05-07T10:27:07;22.00;99.90
57843;DHT22;43673;51.058;3.734;2023-05-07T10:29:39;22.00;99.90
57843;DHT22;43673;51.058;3.734;2023-05-07T10:32:37;22.20;99.90
57843;DHT22;43673;51.058;3.734;2023-05-07T10:35:10;22.40;99.90
57843;DHT22;43673;51.058;3.734;2023-05-07T10:37:36;22.50;99.90
57843;DHT22;43673;51.058;3.734;2023-05-07T10:40:02;22.50;99.90
57843;DHT22;43673;51.058;3.734;2023-05-07T10:42:28;22.60;99.90
57843;DHT22;43673;51.058;3.734;2023-05-07T10:44:54;22.70;99.90
57843;DHT22;43673;51.058;3.734;2023-05-07T10:47:20;22.90;99.90
57843;DHT22;43673;51.058;3.734;2023-05-07T10:52:14;23.30;99.90
57843;DHT22;43673;51.058;3.734;2023-05-07T10:54:44;23.50;99.90
57843;DHT22;43673;51.058;3.734;2023-05-07T10:57:35;23.40;99.90
57843;DHT22;43673;51.058;3.734;2023-05-07T11:00:02;23.10;99.90
57843;DHT22;43673;51.058;3.734;2023-05-07T11:05:29;23.10;99.90
57843;DHT22;43673;51.058;3.734;2023-05-07T11:08:02;23.10;99.90
57843;DHT22;43673;51.058;3.734;2023-05-07T11:10:53;23.10;99.90
57843;DHT22;43673;51.058;3.734;2023-05-07T11:18:51;22.60;99.90
57843;DHT22;43673;51.058;3.734;2023-05-07T11:21:35;22.30;99.90
57843;DHT22;43673;51.058;3.734;2023-05-07T11:24:02;22.40;99.90
57843;DHT22;43673;51.058;3.734;2023-05-07T11:26:31;22.50;99.90
57843;DHT22;43673;51.058;3.734;2023-05-07T11:28:57;22.40;99.90
57843;DHT22;43673;51.058;3.734;2023-05-07T11:31:26;22.50;99.90
57843;DHT22;43673;51.058;3.734;2023-05-07T11:33:54;22.40;99.90
57843;DHT22;43673;51.058;3.734;2023-05-07T11:36:21;22.40;99.90
57843;DHT22;43673;51.058;3.734;2023-05-07T11:38:48;22.50;99.90
57843;DHT22;43673;51.058;3.734;2023-05-07T11:41:13;22.60;99.90
57843;DHT22;43673;51.058;3.734;2023-05-07T11:43:53;22.90;99.90
57843;DHT22;43673;51.058;3.734;2023-05-07T11:46:20;23.00;99.90
57843;DHT22;43673;51.058;3.734;2023-05-07T11:48:46;22.90;99.90
57843;DHT22;43673;51.058;3.734;2023-05-07T11:51:12;23.00;99.90
57843;DHT22;43673;51.058;3.734;2023-05-07T11:53:40;23.20;99.90
57843;DHT22;43673;51.058;3.734;2023-05-07T11:56:10;23.10;99.90
57843;DHT22;43673;51.058;3.734;2023-05-07T11:58:37;23.30;99.90
57843;DHT22;43673;51.058;3.734;2023-05-07T12:01:03;23.40;99.90
57843;DHT22;43673;51.058;3.734;2023-05-07T12:03:28;23.60;99.90
57843;DHT22;43673;51.058;3.734;2023-05-07T12:05:54;23.70;99.90
57843;DHT22;43673;51.058;3.734;2023-05-07T12:08:21;23.70;99.90
57843;DHT22;43673;51.058;3.734;2023-05-07T12:10:49;23.70;99.90
57843;DHT22;43673;51.058;3.734;2023-05-07T12:13:15;23.70;99.90
57843;DHT22;43673;51.058;3.734;2023-05-07T12:15:42;23.70;99.90
57843;DHT22;43673;51.058;3.734;2023-05-07T12:18:08;23.70;99.90
57843;DHT22;43673;51.058;3.734;2023-05-07T12:20:37;23.80;99.90
57843;DHT22;43673;51.058;3.734;2023-05-07T12:23:03;23.80;99.90
57843;DHT22;43673;51.058;3.734;2023-05-07T12:25:36;23.90;99.90
57843;DHT22;43673;51.058;3.734;2023-05-07T12:28:02;23.90;99.90
57843;DHT22;43673;51.058;3.734;2023-05-07T12:30:31;23.90;99.90
57843;DHT22;43673;51.058;3.734;2023-05-07T12:32:58;23.80;99.90
57843;DHT22;43673;51.058;3.734;2023-05-07T12:35:31;23.80;99.90
57843;DHT22;43673;51.058;3.734;2023-05-07T12:37:58;23.80;99.90
57843;DHT22;43673;51.058;3.734;2023-05-07T12:40:42;23.90;99.90
57843;DHT22;43673;51.058;3.734;2023-05-07T12:43:21;24.10;99.90
57843;DHT22;43673;51.058;3.734;2023-05-07T12:45:49;24.30;99.90
57843;DHT22;43673;51.058;3.734;2023-05-07T12:48:15;24.40;99.90
57843;DHT22;43673;51.058;3.734;2023-05-07T12:50:42;24.40;99.90
57843;DHT22;43673;51.058;3.734;2023-05-07T12:53:09;24.70;99.90
57843;DHT22;43673;51.058;3.734;2023-05-07T12:55:47;24.90;99.90
57843;DHT22;43673;51.058;3.734;2023-05-07T12:58:26;24.90;99.90
57843;DHT22;43673;51.058;3.734;2023-05-07T13:00:53;25.00;99.90
57843;DHT22;43673;51.058;3.734;2023-05-07T13:03:27;25.10;99.90
57843;DHT22;43673;51.058;3.734;2023-05-07T13:06:03;25.20;99.90
57843;DHT22;43673;51.058;3.734;2023-05-07T13:08:32;25.50;99.90
57843;DHT22;43673;51.058;3.734;2023-05-07T13:11:18;25.50;99.90
57843;DHT22;43673;51.058;3.734;2023-05-07T13:13:56;25.40;99.90
57843;DHT22;43673;51.058;3.734;2023-05-07T13:16:21;25.50;99.90
57843;DHT22;43673;51.058;3.734;2023-05-07T13:18:47;25.30;99.90
57843;DHT22;43673;51.058;3.734;2023-05-07T13:21:13;25.30;99.90
57843;DHT22;43673;51.058;3.734;2023-05-07T13:23:56;25.50;99.90
57843;DHT22;43673;51.058;3.734;2023-05-07T13:26:23;25.50;99.90
57843;DHT22;43673;51.058;3.734;2023-05-07T13:28:49;25.30;99.90
57843;DHT22;43673;51.058;3.734;2023-05-07T13:31:14;25.20;99.90
57843;DHT22;43673;51.058;3.734;2023-05-07T13:33:40;25.20;99.90
57843;DHT22;43673;51.058;3.734;2023-05-07T13:36:09;25.40;99.90
57843;DHT22;43673;51.058;3.734;2023-05-07T13:38:34;25.60;99.90
57843;DHT22;43673;51.058;3.734;2023-05-07T13:41:00;25.70;99.90
57843;DHT22;43673;51.058;3.734;2023-05-07T13:43:26;25.80;99.90
57843;DHT22;43673;51.058;3.734;2023-05-07T13:45:52;25.70;99.90
57843;DHT22;43673;51.058;3.734;2023-05-07T13:48:17;25.60;99.90
57843;DHT22;43673;51.058;3.734;2023-05-07T13:50:43;25.40;99.90
57843;DHT22;43673;51.058;3.734;2023-05-07T13:53:09;25.30;99.90
57843;DHT22;43673;51.058;3.734;2023-05-07T13:55:34;25.30;99.90
57843;DHT22;43673;51.058;3.734;2023-05-07T13:58:10;25.20;99.90
57843;DHT22;43673;51.058;3.734;2023-05-07T14:00:36;24.90;99.90
57843;DHT22;43673;51.058;3.734;2023-05-07T14:03:04;24.70;99.90
57843;DHT22;43673;51.058;3.734;2023-05-07T14:05:29;24.40;99.90
57843;DHT22;43673;51.058;3.734;2023-05-07T14:07:56;24.30;99.90
57843;DHT22;43673;51.058;3.734;2023-05-07T14:10:22;23.90;99.90
57843;DHT22;43673;51.058;3.734;2023-05-07T14:12:48;23.80;99.90
57843;DHT22;43673;51.058;3.734;2023-05-07T14:15:14;23.60;99.90
57843;DHT22;43673;51.058;3.734;2023-05-07T14:17:41;23.50;99.90
57843;DHT22;43673;51.058;3.734;2023-05-07T14:20:08;23.30;99.90
57843;DHT22;43673;51.058;3.734;2023-05-07T14:22:33;23.10;99.90
57843;DHT22;43673;51.058;3.734;2023-05-07T14:24:59;22.80;99.90
57843;DHT22;43673;51.058;3.734;2023-05-07T14:27:25;22.60;99.90
57843;DHT22;43673;51.058;3.734;2023-05-07T14:29:51;22.30;99.90
57843;DHT22;43673;51.058;3.734;2023-05-07T14:32:20;22.10;99.90
57843;DHT22;43673;51.058;3.734;2023-05-07T14:34:45;21.70;99.90
57843;DHT22;43673;51.058;3.734;2023-05-07T14:37:12;21.50;99.90
57843;DHT22;43673;51.058;3.734;2023-05-07T14:39:38;21.40;99.90
57843;DHT22;43673;51.058;3.734;2023-05-07T14:42:03;21.30;99.90
57843;DHT22;43673;51.058;3.734;2023-05-07T14:44:29;21.10;99.90
57843;DHT22;43673;51.058;3.734;2023-05-07T14:46:55;21.10;99.90
57843;DHT22;43673;51.058;3.734;2023-05-07T14:49:21;21.10;99.90
57843;DHT22;43673;51.058;3.734;2023-05-07T14:51:47;21.20;99.90
57843;DHT22;43673;51.058;3.734;2023-05-07T14:54:13;21.10;99.90
57843;DHT22;43673;51.058;3.734;2023-05-07T14:56:39;21.10;99.90
57843;DHT22;43673;51.058;3.734;2023-05-07T14:59:06;21.10;99.90
57843;DHT22;43673;51.058;3.734;2023-05-07T15:01:32;21.20;99.90
57843;DHT22;43673;51.058;3.734;2023-05-07T15:03:57;21.20;99.90
57843;DHT22;43673;51.058;3.734;2023-05-07T15:06:23;21.30;99.90
57843;DHT22;43673;51.058;3.734;2023-05-07T15:08:49;21.30;99.90
57843;DHT22;43673;51.058;3.734;2023-05-07T15:11:15;21.50;99.90
57843;DHT22;43673;51.058;3.734;2023-05-07T15:13:42;21.60;99.90
57843;DHT22;43673;51.058;3.734;2023-05-07T15:16:08;21.60;99.90
57843;DHT22;43673;51.058;3.734;2023-05-07T15:18:36;21.80;99.90
57843;DHT22;43673;51.058;3.734;2023-05-07T15:21:02;21.90;99.90
57843;DHT22;43673;51.058;3.734;2023-05-07T15:23:28;22.10;99.90
57843;DHT22;43673;51.058;3.734;2023-05-07T15:25:54;22.20;99.90
57843;DHT22;43673;51.058;3.734;2023-05-07T15:28:20;22.30;99.90
57843;DHT22;43673;51.058;3.734;2023-05-07T15:30:46;22.20;99.90
57843;DHT22;43673;51.058;3.734;2023-05-07T15:33:11;22.10;99.90
57843;DHT22;43673;51.058;3.734;2023-05-07T15:35:37;22.00;99.90
57843;DHT22;43673;51.058;3.734;2023-05-07T15:38:03;22.00;99.90